Time;durP1;ratioP1;P1;durP2;ratioP2;P2;SDS_P1;SDS_P2;PMS_P1;PMS_P2;Temp;Humidity;BMP_temperature;BMP_pressure;BME280_temperature;BME280_humidity;BME280_pressure;Samples;Min_cycle;Max_cycle;Signal;HPM_P1;HPM_P2
2021/07/06 00:00:25;;;;;;;10.32;8.48;;;18.50;99.90;;;18.68;96.26;100260.56;5113716;28;20096;-64
2021/07/06 00:02:54;;;;;;;9.18;8.27;;;18.40;99.90;;;18.74;96.09;100258.47;5114006;28;20040;-63
2021/07/06 00:05:23;;;;;;;9.57;8.70;;;18.40;99.90;;;18.77;96.02;100246.75;5113950;28;20441;-64
2021/07/06 00:07:52;;;;;;;9.15;8.40;;;18.50;99.90;;;18.72;96.18;100254.13;5095863;28;20505;-64
2021/07/06 00:10:24;;;;;;;9.32;8.27;;;18.50;99.90;;;18.67;97.04;100240.09;5113861;28;20141;-64
2021/07/06 00:12:54;;;;;;;9.27;8.32;;;18.40;99.90;;;18.72;96.14;100236.25;5113603;28;20043;-63
2021/07/06 00:15:25;;;;;;;11.55;9.73;;;18.50;99.90;;;18.75;96.33;100230.75;5113868;28;20039;-63
2021/07/06 00:17:54;;;;;;;10.05;8.98;;;18.60;99.90;;;18.64;96.82;100245.59;5113499;28;20047;-63
2021/07/06 00:20:26;;;;;;;9.93;8.93;;;18.40;99.90;;;18.58;96.86;100227.13;5113679;28;20047;-63
2021/07/06 00:22:55;;;;;;;9.18;8.23;;;18.50;99.90;;;18.69;96.56;100240.88;5113721;28;20126;-62
2021/07/06 00:25:25;;;;;;;9.15;8.25;;;18.40;99.90;;;18.59;97.00;100256.53;5113548;28;20108;-63
2021/07/06 00:27:55;;;;;;;9.07;7.72;;;18.40;99.90;;;18.58;96.63;100252.09;5113395;28;20104;-62
2021/07/06 00:30:24;;;;;;;10.50;8.30;;;18.40;99.90;;;18.47;97.17;100241.03;5113435;28;20075;-63
2021/07/06 00:32:54;;;;;;;9.38;8.27;;;18.40;99.90;;;18.63;96.87;100239.38;5113495;28;20047;-63
2021/07/06 00:35:23;;;;;;;10.37;8.30;;;18.40;99.90;;;18.54;97.27;100223.69;5113598;28;20065;-65
2021/07/06 00:37:52;;;;;;;13.27;8.57;;;18.30;99.90;;;18.61;97.30;100227.84;5113491;28;20083;-64
2021/07/06 00:40:20;;;;;;;9.00;8.27;;;18.40;99.90;;;18.56;97.49;100226.34;5113151;28;20043;-64
2021/07/06 00:42:58;;;;;;;;;;;18.30;99.90;;;18.51;97.91;100223.88;5113977;28;20097;-64
2021/07/06 00:45:28;;;;;;;9.82;8.07;;;18.30;99.90;;;18.44;98.34;100205.47;5113421;28;20323;-64
2021/07/06 00:48:00;;;;;;;7.47;6.78;;;18.20;99.90;;;18.44;98.46;100216.19;5095154;28;20489;-63
2021/07/06 00:50:30;;;;;;;7.78;7.10;;;18.20;99.90;;;18.40;98.81;100214.56;5113286;28;20048;-64
2021/07/06 00:52:59;;;;;;;7.97;7.18;;;18.20;99.90;;;18.40;99.30;100206.53;5113420;28;20047;-63
2021/07/06 00:55:27;;;;;;;9.40;8.23;;;18.20;99.90;;;18.38;99.50;100201.25;5113219;28;20084;-64
2021/07/06 00:57:58;;;;;;;8.43;7.50;;;18.10;99.90;;;18.35;99.94;100192.50;5113183;28;20077;-63
2021/07/06 01:00:27;;;;;;;10.50;7.80;;;18.10;99.90;;;18.15;100.00;100155.94;5113073;28;20047;-64
2021/07/06 01:02:56;;;;;;;9.15;8.23;;;18.10;99.90;;;18.28;100.00;100191.03;5111902;28;20043;-64
2021/07/06 01:05:26;;;;;;;8.52;7.53;;;18.00;99.90;;;18.25;100.00;100178.69;5113144;28;20040;-64
2021/07/06 01:07:55;;;;;;;8.73;7.93;;;18.00;99.90;;;18.32;100.00;100174.75;5095020;28;20499;-64
2021/07/06 01:10:24;;;;;;;8.77;7.90;;;18.10;99.90;;;18.33;100.00;100181.00;5113068;28;20047;-64
2021/07/06 01:12:53;;;;;;;9.25;8.23;;;18.10;99.90;;;18.26;100.00;100158.97;5116973;28;20036;-63
2021/07/06 01:15:27;;;;;;;8.75;7.95;;;18.10;99.90;;;18.20;100.00;100148.56;5116927;28;20382;-63
2021/07/06 01:18:01;;;;;;;9.23;8.32;;;18.10;99.90;;;18.52;100.00;100147.94;5117192;28;20088;-64
2021/07/06 01:20:30;;;;;;;7.80;6.85;;;18.20;99.90;;;18.31;100.00;100135.53;5116903;28;20047;-66
2021/07/06 01:23:01;;;;;;;8.85;7.05;;;18.20;99.90;;;18.39;100.00;100149.41;5117070;28;20035;-64
2021/07/06 01:25:29;;;;;;;7.57;6.88;;;18.20;99.90;;;18.42;99.93;100143.06;5116759;28;20108;-64
2021/07/06 01:28:02;;;;;;;8.65;6.57;;;18.20;99.90;;;18.39;100.00;100133.34;5117337;28;20548;-65
2021/07/06 01:30:31;;;;;;;7.35;6.68;;;18.20;99.90;;;18.27;100.00;100082.22;5116939;28;20577;-64
2021/07/06 01:33:00;;;;;;;7.50;6.68;;;18.20;99.90;;;18.41;100.00;100115.41;5117052;28;20058;-63
2021/07/06 01:35:29;;;;;;;8.30;6.90;;;18.20;99.90;;;18.55;99.99;100112.94;5116692;28;20047;-63
2021/07/06 01:38:02;;;;;;;7.57;6.45;;;18.30;99.90;;;18.53;99.96;100114.84;5098561;28;20089;-64
2021/07/06 01:40:31;;;;;;;7.68;6.97;;;18.30;99.90;;;18.51;100.00;100097.97;5116799;28;20047;-63
2021/07/06 01:43:01;;;;;;;9.88;6.85;;;18.30;99.90;;;18.54;100.00;100096.97;5098401;28;20044;-63
2021/07/06 01:45:31;;;;;;;13.15;7.07;;;18.30;99.90;;;18.27;100.00;100085.75;5116357;28;20044;-63
2021/07/06 01:48:03;;;;;;;8.77;7.15;;;18.20;99.90;;;18.55;100.00;100085.28;5116335;28;20489;-63
2021/07/06 01:50:34;;;;;;;9.27;7.72;;;18.30;99.90;;;18.57;100.00;100105.72;5116582;28;20043;-64
2021/07/06 01:53:06;;;;;;;7.60;6.85;;;18.40;99.90;;;18.49;100.00;100104.34;5116153;28;20085;-63
2021/07/06 01:55:38;;;;;;;8.75;7.30;;;18.30;99.90;;;18.48;100.00;100087.44;5116097;28;20062;-63
2021/07/06 01:58:09;;;;;;;7.75;6.95;;;18.30;99.90;;;18.51;100.00;100071.19;5116142;28;20044;-63
2021/07/06 02:00:41;;;;;;;7.38;6.57;;;18.30;99.90;;;18.38;100.00;100056.66;5116291;28;20054;-63
2021/07/06 02:03:11;;;;;;;7.53;6.82;;;18.10;99.90;;;18.34;100.00;100063.09;5116583;28;20048;-63
2021/07/06 02:05:41;;;;;;;;;;;18.10;99.90;;;18.28;100.00;100060.72;5116677;28;20047;-63
2021/07/06 02:08:13;;;;;;;7.07;6.38;;;18.10;99.90;;;18.30;100.00;100053.47;5116219;28;19963;-63
2021/07/06 02:10:43;;;;;;;8.95;6.40;;;18.10;99.90;;;18.24;100.00;100037.69;5115866;28;20044;-62
2021/07/06 02:13:14;;;;;;;7.03;6.32;;;18.10;99.90;;;18.22;100.00;100028.00;5116061;28;20039;-62
2021/07/06 02:15:45;;;;;;;8.70;6.60;;;18.00;99.90;;;18.31;100.00;100032.94;5115829;28;20499;-62
2021/07/06 02:18:18;;;;;;;7.30;6.53;;;18.00;99.90;;;18.31;100.00;100031.09;5115729;28;20477;-63
2021/07/06 02:20:47;;;;;;;6.90;6.25;;;18.10;99.90;;;18.27;100.00;100045.59;5097877;28;20051;-63
2021/07/06 02:23:17;;;;;;;5.90;5.40;;;18.10;99.90;;;18.24;100.00;100020.75;5115953;28;20134;-64
2021/07/06 02:25:46;;;;;;;9.15;5.50;;;18.00;99.90;;;18.20;100.00;100033.44;5097388;28;20058;-63
2021/07/06 02:28:14;;;;;;;5.85;5.32;;;18.00;99.90;;;17.99;100.00;99989.88;5115564;28;20434;-63
2021/07/06 02:30:43;;;;;;;7.43;5.20;;;18.00;99.90;;;18.30;100.00;100009.75;5115736;28;20043;-62
2021/07/06 02:33:12;;;;;;;6.07;5.40;;;18.00;99.90;;;18.21;100.00;99962.91;5097378;28;20055;-64
2021/07/06 02:35:40;;;;;;;5.72;5.13;;;18.10;99.90;;;18.30;100.00;99988.34;5115498;28;20051;-62
2021/07/06 02:38:10;;;;;;;6.32;5.82;;;18.10;99.90;;;18.12;100.00;99963.34;5115735;28;20043;-62
2021/07/06 02:40:40;;;;;;;5.82;5.35;;;18.10;99.90;;;18.36;100.00;99990.72;5115273;28;20062;-62
2021/07/06 02:43:09;;;;;;;9.00;5.03;;;18.10;99.90;;;18.27;100.00;99989.38;5115615;28;20051;-63
2021/07/06 02:45:37;;;;;;;7.50;5.93;;;18.10;99.90;;;18.26;100.00;99992.97;5115558;28;20051;-62
2021/07/06 02:48:06;;;;;;;7.25;6.53;;;18.00;99.90;;;18.33;100.00;99978.34;5115415;28;20088;-62
2021/07/06 02:50:36;;;;;;;7.13;5.47;;;18.10;99.90;;;18.35;100.00;99976.44;5115716;28;20143;-62
2021/07/06 02:53:05;;;;;;;6.50;5.90;;;18.10;99.90;;;18.27;100.00;99973.31;5097008;28;20040;-63
2021/07/06 02:55:33;;;;;;;6.80;5.85;;;18.00;99.90;;;18.35;100.00;99971.09;5114941;28;20101;-62
2021/07/06 02:58:03;;;;;;;11.50;6.38;;;18.10;99.90;;;18.27;100.00;99972.44;5115004;28;20393;-63
2021/07/06 03:00:34;;;;;;;10.52;6.50;;;18.00;99.90;;;18.45;100.00;99967.03;5115255;28;20498;-63
2021/07/06 03:03:07;;;;;;;5.97;5.43;;;18.10;99.90;;;18.32;100.00;99952.53;5115122;28;20055;-63
2021/07/06 03:05:37;;;;;;;6.82;6.13;;;18.20;99.90;;;18.43;100.00;99978.78;5115127;28;20435;-63
2021/07/06 03:08:06;;;;;;;6.82;5.70;;;18.20;99.90;;;18.46;100.00;99990.22;5114777;28;20047;-62
2021/07/06 03:10:38;;;;;;;7.30;5.25;;;18.20;99.90;;;18.46;100.00;99986.66;5096704;28;20083;-64
2021/07/06 03:13:09;;;;;;;5.80;5.40;;;18.20;99.90;;;18.43;100.00;100006.41;5114816;28;20064;-63
2021/07/06 03:15:38;;;;;;;5.47;5.07;;;18.20;99.90;;;18.46;100.00;99967.91;5114870;28;20052;-62
2021/07/06 03:18:10;;;;;;;7.30;5.32;;;18.20;99.90;;;18.02;100.00;99897.88;5114541;28;20096;-64
2021/07/06 03:20:38;;;;;;;6.20;5.18;;;18.30;99.90;;;18.54;100.00;99976.44;5114839;28;20051;-64
2021/07/06 03:23:07;;;;;;;7.22;5.78;;;18.30;99.90;;;18.53;100.00;99958.63;5114423;28;20044;-64
2021/07/06 03:25:36;;;;;;;8.50;5.60;;;18.30;99.90;;;18.52;100.00;99952.41;5114692;28;20051;-64
2021/07/06 03:28:05;;;;;;;7.68;5.95;;;18.30;99.90;;;18.60;100.00;99944.81;5114297;28;20039;-64
2021/07/06 03:30:37;;;;;;;6.90;5.57;;;18.40;99.90;;;18.54;99.91;99953.16;5114521;28;20130;-63
2021/07/06 03:33:08;;;;;;;5.47;4.72;;;18.40;99.90;;;18.67;99.50;99948.94;5114039;28;20047;-63
2021/07/06 03:35:42;;;;;;;8.07;4.60;;;18.40;99.90;;;18.48;99.20;99931.22;5095898;28;20149;-64
2021/07/06 03:38:11;;;;;;;6.28;4.93;;;18.40;99.90;;;18.55;99.73;99952.25;5114161;28;20067;-63
2021/07/06 03:40:39;;;;;;;5.75;5.18;;;18.30;99.90;;;18.55;100.00;99962.09;5113948;28;20043;-63
2021/07/06 03:43:08;;;;;;;7.50;5.40;;;18.30;99.90;;;18.62;100.00;99960.84;5096177;28;20078;-66
2021/07/06 03:45:38;;;;;;;5.40;4.85;;;18.40;99.90;;;18.67;99.91;99948.06;5114256;28;20063;-63
2021/07/06 03:48:07;;;;;;;7.15;5.15;;;18.40;99.90;;;18.51;100.00;99942.63;5113891;28;20100;-62
2021/07/06 03:50:35;;;;;;;7.22;5.30;;;18.30;99.90;;;18.70;99.61;99938.03;5113819;28;20051;-63
2021/07/06 03:53:04;;;;;;;8.75;5.03;;;18.40;99.90;;;18.82;98.58;99955.28;5114066;28;20487;-63
2021/07/06 03:55:33;;;;;;;5.30;4.72;;;18.60;99.90;;;18.86;97.98;99955.06;5114114;28;20103;-62
2021/07/06 03:58:01;;;;;;;7.22;4.90;;;18.70;99.90;;;18.89;98.26;99936.13;5114360;28;20043;-63
2021/07/06 04:00:31;;;;;;;12.35;4.95;;;18.70;99.90;;;19.01;97.40;99949.84;5114017;28;20154;-65
2021/07/06 04:03:01;;;;;;;5.93;5.05;;;18.80;99.90;;;19.04;97.29;99941.63;5114092;28;20079;-65
2021/07/06 04:05:30;;;;;;;8.45;4.63;;;18.80;99.90;;;19.07;97.43;99952.16;5112626;28;20055;-66
2021/07/06 04:07:58;;;;;;;10.23;5.10;;;18.80;99.90;;;19.04;97.32;99965.75;5113928;28;20101;-63
2021/07/06 04:10:27;;;;;;;7.32;5.50;;;18.90;99.90;;;19.07;97.30;99968.25;5113586;28;20097;-64
2021/07/06 04:12:55;;;;;;;10.93;4.95;;;18.90;99.90;;;19.01;97.67;99960.56;5095513;28;20753;-66
2021/07/06 04:15:25;;;;;;;5.30;4.80;;;18.80;99.90;;;18.96;97.27;99967.97;5113782;28;20100;-67
2021/07/06 04:17:53;;;;;;;8.23;4.80;;;18.80;99.90;;;18.92;97.70;99973.50;5113462;28;20040;-66
2021/07/06 04:20:23;;;;;;;5.60;4.53;;;18.70;99.90;;;18.98;97.43;99963.38;5113623;28;20056;-67
2021/07/06 04:22:51;;;;;;;5.28;4.78;;;18.80;99.90;;;19.03;97.18;99961.34;5114112;28;20485;-67
2021/07/06 04:25:20;;;;;;;8.57;4.82;;;18.80;99.90;;;19.08;97.12;99976.22;5095215;28;20036;-67
2021/07/06 04:27:51;;;;;;;5.68;4.35;;;18.90;99.90;;;19.22;96.54;99965.59;5112197;28;20093;-68
2021/07/06 04:30:20;;;;;;;7.25;4.20;;;19.00;99.90;;;19.17;96.29;99966.81;5113653;28;20055;-67
2021/07/06 04:32:49;;;;;;;5.38;4.68;;;19.00;99.90;;;19.26;96.59;99972.53;5113191;28;20063;-67
2021/07/06 04:35:18;;;;;;;6.60;4.03;;;19.00;99.90;;;19.32;95.63;99992.78;5113267;28;20048;-68
2021/07/06 04:37:48;;;;;;;9.60;4.32;;;19.10;99.90;;;19.16;94.92;99936.47;5094565;28;20112;-67
2021/07/06 04:40:18;;;;;;;6.85;4.30;;;19.10;99.90;;;19.53;94.32;99981.78;5112426;28;20127;-67
2021/07/06 04:42:47;;;;;;;5.10;4.60;;;19.30;99.90;;;19.56;93.88;99970.91;5112646;28;20043;-67
2021/07/06 04:45:15;;;;;;;8.85;4.30;;;19.30;99.90;;;19.53;93.33;99959.50;5111290;28;20481;-67
2021/07/06 04:47:44;;;;;;;11.00;3.83;;;19.30;99.90;;;19.60;92.63;99967.13;5112515;28;20413;-68
2021/07/06 04:50:15;;;;;;;6.00;4.50;;;19.40;99.90;;;19.66;92.13;99965.91;5094272;28;20485;-67
2021/07/06 04:52:46;;;;;;;5.63;4.35;;;19.40;99.90;;;19.71;91.18;99963.81;5094441;28;20513;-67
2021/07/06 04:55:18;;;;;;;6.60;4.60;;;19.50;99.90;;;19.84;90.94;99978.25;5112160;28;20401;-67
2021/07/06 04:57:48;;;;;;;5.95;3.80;;;19.50;99.90;;;19.74;90.35;99948.41;5112240;28;20092;-67
2021/07/06 05:00:19;;;;;;;7.88;4.65;;;19.60;99.90;;;19.84;89.30;99990.84;5094217;28;20054;-67
2021/07/06 05:02:48;;;;;;;8.73;3.90;;;19.60;99.90;;;19.84;87.84;99966.69;5112028;28;20554;-68
2021/07/06 05:05:19;;;;;;;4.90;3.78;;;19.60;99.90;;;19.95;87.66;99977.66;5112427;28;20055;-67
2021/07/06 05:07:48;;;;;;;9.23;4.20;;;19.70;99.90;;;19.94;87.89;99984.84;5111031;28;20075;-67
2021/07/06 05:10:19;;;;;;;8.43;4.50;;;19.60;99.90;;;20.08;88.18;99984.06;5093976;28;20054;-67
2021/07/06 05:12:47;;;;;;;5.22;4.45;;;19.80;99.90;;;20.18;88.42;99970.06;5112259;28;20073;-67
2021/07/06 05:15:16;;;;;;;6.95;4.13;;;19.80;99.90;;;20.21;88.75;99986.00;5112158;28;20075;-68
2021/07/06 05:17:45;;;;;;;5.43;4.20;;;19.90;99.90;;;20.10;89.50;99976.78;5110806;28;20039;-67
2021/07/06 05:20:15;;;;;;;5.40;4.75;;;19.90;99.90;;;20.00;90.18;99981.81;5111922;28;20507;-67
2021/07/06 05:22:44;;;;;;;8.65;4.80;;;19.90;99.90;;;19.96;90.39;99999.06;5112137;28;20055;-67
2021/07/06 05:25:14;;;;;;;6.55;4.43;;;19.80;99.90;;;19.97;90.43;99987.38;5093896;28;20085;-67
2021/07/06 05:27:44;;;;;;;9.60;4.47;;;19.70;99.90;;;20.01;90.31;99977.31;5111878;28;20051;-68
2021/07/06 05:30:15;;;;;;;6.80;4.93;;;19.80;99.90;;;19.82;89.85;99961.41;5112041;28;20122;-67
2021/07/06 05:32:44;;;;;;;7.78;4.57;;;19.80;99.90;;;19.95;89.64;99967.81;5111723;28;20464;-67
2021/07/06 05:35:14;;;;;;;7.72;4.65;;;19.70;99.90;;;19.99;89.36;99979.22;5111968;28;20046;-69
2021/07/06 05:37:43;;;;;;;7.68;4.90;;;19.70;99.90;;;20.01;89.58;99977.31;5054484;28;1132931;-68
2021/07/06 05:40:14;;;;;;;4.72;3.67;;;19.70;99.90;;;20.00;89.23;99975.56;5094510;28;20051;-67
2021/07/06 05:42:45;;;;;;;6.25;3.85;;;19.70;99.90;;;20.00;88.63;99987.19;5112921;28;20043;-68
2021/07/06 05:45:14;;;;;;;5.68;3.78;;;19.70;99.90;;;19.98;87.85;99978.34;5112967;28;20051;-67
2021/07/06 05:47:43;;;;;;;6.07;4.10;;;19.70;99.90;;;19.35;87.30;99866.63;5094783;28;20054;-67
2021/07/06 05:50:14;;;;;;;6.90;4.28;;;19.70;99.90;;;20.05;86.69;99977.06;5112673;28;20048;-67
2021/07/06 05:52:44;;;;;;;;;;;19.80;99.90;;;19.87;86.83;99948.59;5112974;28;20040;-67
2021/07/06 05:55:13;;;;;;;8.15;4.65;;;19.80;99.90;;;19.94;85.30;99976.78;5112548;28;20281;-67
2021/07/06 05:57:43;;;;;;;5.22;3.95;;;19.70;99.90;;;20.01;84.63;99974.63;5114719;28;20400;-67
2021/07/06 06:00:15;;;;;;;9.68;3.63;;;19.70;99.90;;;18.93;79.71;99845.69;5116142;28;20516;-67
2021/07/06 06:02:51;;;;;;;6.68;3.63;;;19.50;99.90;;;19.60;76.49;99985.91;5116302;28;20040;-67
2021/07/06 06:05:19;;;;;;;6.43;3.28;;;19.40;99.90;;;19.71;75.49;99991.53;5116360;28;20389;-67
2021/07/06 06:07:49;;;;;;;10.00;3.75;;;19.40;99.90;;;19.60;74.05;99983.22;5097845;28;20048;-67
2021/07/06 06:10:18;;;;;;;5.18;3.72;;;19.30;99.90;;;19.71;74.67;99986.16;5116171;28;20044;-66
2021/07/06 06:12:48;;;;;;;6.63;4.00;;;19.40;99.90;;;19.71;74.15;99982.59;5115586;28;20098;-67
2021/07/06 06:15:17;;;;;;;7.95;3.90;;;19.40;99.90;;;19.69;74.34;99984.50;5115674;28;20083;-67
2021/07/06 06:17:46;;;;;;;7.18;3.72;;;19.40;99.90;;;19.76;74.00;99983.22;5115727;28;20454;-67
2021/07/06 06:20:16;;;;;;;5.60;3.50;;;19.40;99.90;;;19.91;74.00;99987.72;5115615;28;20036;-66
2021/07/06 06:22:45;;;;;;;8.63;3.60;;;19.50;99.90;;;19.93;74.19;99996.56;5115922;28;20500;-67
2021/07/06 06:25:14;;;;;;;10.55;4.07;;;19.60;99.90;;;19.97;74.28;99987.38;5115716;28;20043;-68
2021/07/06 06:27:42;;;;;;;6.80;3.88;;;19.60;99.90;;;20.03;74.46;99987.03;5115576;28;20679;-67
2021/07/06 06:30:15;;;;;;;5.90;4.10;;;19.70;99.90;;;20.16;74.14;99996.09;5097658;28;20051;-67
2021/07/06 06:32:44;;;;;;;4.95;3.28;;;19.80;99.90;;;20.15;74.55;100005.09;5097174;28;20138;-67
2021/07/06 06:35:13;;;;;;;5.10;3.55;;;19.80;99.90;;;20.18;74.93;100006.75;5115572;28;20032;-68
2021/07/06 06:37:42;;;;;;;6.53;3.70;;;19.80;99.90;;;20.20;75.13;100004.88;5097142;28;20055;-62
2021/07/06 06:40:12;;;;;;;9.35;3.88;;;19.90;99.90;;;20.27;75.14;100006.25;5114501;28;20047;-63
2021/07/06 06:42:41;;;;;;;7.45;3.72;;;19.90;99.90;;;20.41;75.19;100006.31;5115259;28;20051;-64
2021/07/06 06:45:14;;;;;;;5.93;3.72;;;20.00;99.90;;;20.33;74.66;100003.22;5097137;28;20048;-65
2021/07/06 06:47:43;;;;;;;10.10;3.88;;;20.00;99.90;;;20.25;73.51;100003.66;5115203;28;20043;-64
2021/07/06 06:50:14;;;;;;;4.15;3.53;;;19.90;99.90;;;20.27;73.56;100007.13;5115480;28;20078;-66
2021/07/06 06:52:43;;;;;;;7.07;3.35;;;19.90;99.90;;;20.29;73.34;100005.22;5115159;28;20081;-66
2021/07/06 06:55:13;;;;;;;8.60;4.00;;;19.90;99.90;;;20.37;73.58;100010.13;5115081;28;20071;-66
2021/07/06 06:57:41;;;;;;;5.28;3.25;;;20.00;99.90;;;20.40;73.20;100007.28;5115146;28;20036;-66
2021/07/06 07:00:11;;;;;;;7.35;3.55;;;20.00;99.90;;;20.43;73.17;100016.03;5114835;28;20078;-66
2021/07/06 07:02:43;;;;;;;5.53;3.38;;;20.10;99.90;;;20.35;72.76;100010.25;5114886;28;20493;-66
2021/07/06 07:05:14;;;;;;;5.30;3.45;;;20.00;99.90;;;20.26;72.96;100008.09;5115147;28;20047;-66
2021/07/06 07:07:43;;;;;;;4.63;3.60;;;19.90;99.90;;;20.31;73.44;100023.94;5114643;28;20494;-66
2021/07/06 07:10:12;;;;;;;10.35;3.50;;;19.90;99.90;;;20.39;74.32;100005.53;5114570;28;20071;-67
2021/07/06 07:12:42;;;;;;;6.22;3.55;;;20.00;99.90;;;20.35;74.38;99999.50;5114938;28;20039;-65
2021/07/06 07:15:13;;;;;;;8.07;3.67;;;20.00;99.90;;;20.31;74.16;99997.94;5114966;28;20079;-65
2021/07/06 07:17:42;;;;;;;7.03;3.90;;;20.00;99.90;;;20.35;74.35;100006.69;5096561;28;20546;-66
2021/07/06 07:20:12;;;;;;;8.57;3.80;;;20.00;99.90;;;20.16;72.61;99984.50;5114855;28;20050;-66
2021/07/06 07:22:41;;;;;;;7.18;4.10;;;19.90;99.90;;;20.36;72.64;100016.47;5114739;28;20054;-65
2021/07/06 07:25:12;;;;;;;4.60;3.53;;;20.00;99.90;;;20.58;72.51;100006.19;5114387;28;20046;-65
2021/07/06 07:27:41;;;;;;;6.32;3.53;;;20.20;99.90;;;20.80;71.49;100016.53;5096384;28;20052;-66
2021/07/06 07:30:12;;;;;;;3.95;3.05;;;20.40;99.90;;;20.45;70.34;99944.28;5113327;28;20086;-66
2021/07/06 07:32:43;;;;;;;4.00;3.20;;;20.50;99.90;;;20.92;69.12;100005.06;5114359;28;20036;-66
2021/07/06 07:35:13;;;;;;;7.20;3.40;;;20.60;99.90;;;20.92;68.88;100014.00;5114199;28;20043;-66
2021/07/06 07:37:42;;;;;;;8.68;4.03;;;20.60;99.90;;;21.04;68.98;100005.19;5114904;28;20051;-66
2021/07/06 07:40:14;;;;;;;7.45;3.60;;;20.70;99.90;;;20.94;68.13;100019.28;5114398;28;20048;-67
2021/07/06 07:42:43;;;;;;;8.18;3.58;;;20.60;99.90;;;20.75;67.21;100006.06;5113997;28;20112;-66
2021/07/06 07:45:13;;;;;;;10.70;3.47;;;20.50;99.90;;;20.74;66.80;100028.53;5113931;28;20047;-66
2021/07/06 07:47:43;;;;;;;8.60;2.97;;;20.50;99.90;;;20.93;68.72;100037.22;5114262;28;20051;-67
2021/07/06 07:50:13;;;;;;;5.90;3.63;;;20.50;99.90;;;20.98;67.88;100021.66;5095705;28;20082;-66
2021/07/06 07:52:42;;;;;;;6.40;3.20;;;20.70;99.90;;;21.10;67.83;100023.66;5096145;28;20047;-66
2021/07/06 07:55:12;;;;;;;7.88;3.30;;;20.80;99.90;;;21.13;66.94;100006.47;5114046;28;20481;-65
2021/07/06 07:57:41;;;;;;;5.38;3.45;;;20.90;99.90;;;21.01;66.25;100013.47;5114308;28;20051;-65
2021/07/06 08:00:12;;;;;;;9.65;3.50;;;20.80;99.90;;;21.15;67.61;100013.50;5113814;28;20514;-66
2021/07/06 08:02:45;;;;;;;8.45;3.70;;;20.80;99.90;;;21.05;67.46;100027.59;5095788;28;20051;-66
2021/07/06 08:05:16;;;;;;;7.80;4.00;;;20.80;99.90;;;20.89;66.87;100010.59;5095797;28;20079;-66
2021/07/06 08:07:44;;;;;;;9.30;3.60;;;20.60;99.90;;;20.91;66.77;100030.19;5095556;28;20496;-66
2021/07/06 08:10:13;;;;;;;10.60;3.67;;;20.60;99.90;;;20.64;66.15;100030.03;5113529;28;20043;-66
2021/07/06 08:12:42;;;;;;;10.93;4.05;;;20.50;99.90;;;20.41;64.96;100009.00;5113698;28;20048;-66
2021/07/06 08:15:13;;;;;;;10.73;4.07;;;20.30;99.90;;;20.33;63.71;100033.63;5095536;28;20044;-66
2021/07/06 08:17:41;;;;;;;15.90;4.75;;;20.10;99.90;;;20.16;64.11;100028.34;5113485;28;20051;-66
2021/07/06 08:20:13;;;;;;;9.48;3.78;;;20.00;99.90;;;20.30;64.79;100044.56;5113498;28;20115;-65
2021/07/06 08:22:43;;;;;;;9.65;3.58;;;20.00;99.90;;;20.26;63.50;100017.97;5113429;28;20100;-65
2021/07/06 08:25:13;;;;;;;15.55;3.95;;;20.00;99.90;;;20.13;63.00;100063.41;5095250;28;20109;-66
2021/07/06 08:27:41;;;;;;;19.48;4.88;;;19.90;99.90;;;20.01;61.42;100031.03;5113574;28;20100;-65
2021/07/06 08:30:11;;;;;;;15.57;3.72;;;19.80;99.90;;;19.90;60.50;100058.44;5113257;28;20054;-65
2021/07/06 08:32:39;;;;;;;9.30;4.35;;;19.70;99.90;;;19.90;59.69;100071.03;5112158;28;20040;-65
2021/07/06 08:35:11;;;;;;;15.43;4.38;;;19.60;99.90;;;19.93;60.29;100078.91;5113382;28;20043;-65
2021/07/06 08:37:40;;;;;;;11.75;4.22;;;19.60;99.90;;;19.98;60.26;100026.69;5094988;28;20485;-65
2021/07/06 08:40:10;;;;;;;10.02;4.28;;;19.70;99.90;;;19.91;61.00;100045.91;5113097;28;20378;-66
2021/07/06 08:42:41;;;;;;;21.83;4.40;;;19.70;99.90;;;20.01;61.98;100050.69;5113696;28;20036;-67
2021/07/06 08:45:12;;;;;;;14.65;4.13;;;19.70;99.90;;;20.16;61.88;100067.75;5113333;28;20049;-69
2021/07/06 08:47:45;;;;;;;8.93;3.72;;;19.80;99.90;;;20.14;61.76;100083.06;5113308;28;20039;-68
2021/07/06 08:50:16;;;;;;;13.95;4.25;;;19.90;99.90;;;19.92;59.72;100102.19;5113538;28;20043;-69
2021/07/06 08:52:45;;;;;;;12.73;4.38;;;19.70;99.90;;;19.89;61.19;100071.97;5113399;28;20080;-69
2021/07/06 08:55:16;;;;;;;13.45;3.80;;;19.60;99.90;;;19.92;60.80;100075.34;5113040;28;20043;-69
2021/07/06 08:57:46;;;;;;;12.45;4.53;;;19.60;99.90;;;20.08;60.55;100107.59;5113110;28;20455;-71
2021/07/06 09:00:18;;;;;;;11.88;4.35;;;19.80;99.90;;;20.27;59.29;100022.38;5113534;28;20047;-69
2021/07/06 09:03:01;;;;;;;14.27;4.63;;;19.90;99.90;;;20.31;59.16;100083.88;5094934;28;20051;-70
2021/07/06 09:05:33;;;;;;;11.13;4.20;;;20.10;99.90;;;20.34;58.34;100050.63;5094900;28;20044;-69
2021/07/06 09:08:03;;;;;;;14.85;4.78;;;20.10;99.90;;;20.40;58.96;100077.97;5113133;28;20031;-69
2021/07/06 09:10:36;;;;;;;11.90;3.60;;;20.20;99.90;;;20.58;60.93;100076.06;5094721;28;20053;-69
2021/07/06 09:13:19;;;;;;;16.35;4.43;;;20.30;99.90;;;20.45;59.97;100081.28;5095035;28;20047;-69
2021/07/06 09:15:52;;;;;;;18.23;4.18;;;20.20;99.90;;;20.30;59.63;100082.19;5112931;28;20046;-68
2021/07/06 09:18:23;;;;;;;12.52;4.28;;;20.10;99.90;;;20.33;59.87;100099.91;5112660;28;20143;-72
2021/07/06 09:21:08;;;;;;;10.85;4.30;;;20.10;99.90;;;20.42;61.05;100077.94;5113074;28;20066;-71
2021/07/06 09:23:40;;;;;;;8.82;3.95;;;20.10;99.90;;;20.43;60.21;100072.44;5094716;28;20055;-68
2021/07/06 09:26:16;;;;;;;15.27;3.85;;;20.20;99.90;;;20.50;59.44;100076.50;5112790;28;20054;-69
2021/07/06 09:28:47;;;;;;;9.43;3.60;;;20.20;99.90;;;20.55;60.28;100100.44;5113062;28;20048;-68
2021/07/06 09:31:26;;;;;;;16.88;4.47;;;20.30;99.90;;;20.48;59.60;100081.09;5111850;28;20051;-68
2021/07/06 09:34:03;;;;;;;15.38;3.97;;;20.30;99.90;;;20.56;59.87;100094.97;5098598;28;20047;-67
2021/07/06 09:36:38;;;;;;;7.43;4.10;;;20.30;99.90;;;20.68;60.54;100088.88;5097909;28;20063;-70
2021/07/06 09:39:14;;;;;;;15.15;3.97;;;20.40;99.90;;;20.77;60.06;100092.00;5116400;28;20047;-67
2021/07/06 09:41:53;;;;;;;9.07;3.75;;;20.50;99.90;;;20.98;59.07;100099.66;5116989;28;20097;-68
2021/07/06 09:44:25;;;;;;;9.13;3.60;;;20.70;99.90;;;20.38;58.06;100014.56;5116609;28;20048;-67
2021/07/06 09:46:57;;;;;;;6.18;3.38;;;20.70;99.90;;;21.11;58.53;100103.41;5116867;28;20089;-67
2021/07/06 09:49:29;;;;;;;13.10;3.58;;;20.80;99.90;;;21.10;58.38;100109.72;5116315;28;20048;-67
2021/07/06 09:52:09;;;;;;;9.80;3.60;;;20.90;99.90;;;20.83;57.50;100114.00;5116627;28;20039;-67
2021/07/06 09:54:41;;;;;;;10.68;4.28;;;20.60;99.90;;;20.76;58.99;100115.31;5116443;28;20109;-67
2021/07/06 09:57:27;;;;;;;11.95;3.85;;;20.60;99.90;;;20.76;59.27;100130.56;5116079;28;20556;-68
2021/07/06 10:00:04;;;;;;;8.43;3.70;;;20.50;99.90;;;20.98;59.81;100109.56;5116443;28;20118;-68
2021/07/06 10:02:45;;;;;;;10.63;3.38;;;20.70;99.90;;;20.82;59.16;100104.22;5116663;28;20109;-68
2021/07/06 10:05:18;;;;;;;14.07;3.90;;;20.70;99.90;;;20.68;57.87;100105.03;5116394;28;20051;-68
2021/07/06 10:07:48;;;;;;;13.30;3.50;;;20.50;99.90;;;20.72;58.23;100094.06;5116216;28;20043;-68
2021/07/06 10:10:19;;;;;;;7.53;3.35;;;20.60;99.90;;;20.79;58.10;100123.19;5116191;28;20055;-68
2021/07/06 10:12:48;;;;;;;;;;;20.50;99.90;;;20.89;59.68;100120.84;5116400;28;20489;-68
2021/07/06 10:15:22;;;;;;;12.23;4.60;;;20.60;99.90;;;20.82;59.96;100138.28;5115847;28;19920;-68
2021/07/06 10:17:52;;;;;;;15.00;4.57;;;20.60;99.90;;;20.63;60.21;100139.34;5115854;28;20401;-65
2021/07/06 10:20:25;;;;;;;16.05;4.10;;;20.40;99.90;;;20.65;60.51;100124.00;5115788;28;20049;-67
2021/07/06 10:22:57;;;;;;;13.00;4.00;;;20.40;99.90;;;20.04;60.51;100022.78;5115738;28;20039;-67
2021/07/06 10:25:28;;;;;;;11.30;4.47;;;20.40;99.90;;;20.30;60.28;100117.09;5114707;28;20052;-67